Terminal Aerodrome Forecast
Issued by NWS Brownsville, TX

Home | Current Version | Previous Version | Text Only | Print | Product List | Glossary On
Versions: 1 2 3 4 5 6 7 8 9 10 11 12 13
000
FTUS44 KBRO 291729
TAFMFE
TAF
KMFE 291729Z 2918/3018 14022G29KT P6SM SKC
     FM300300 16014G20KT P6SM SKC
     FM300900 16012KT P6SM SCT025
     FM301500 16018G22KT P6SM SCT030=

USA.gov is the U.S. government's official web portal to all federal, state and local government web resources and services.